Time;durP1;ratioP1;P1;durP2;ratioP2;P2;SDS_P1;SDS_P2;PMS_P1;PMS_P2;Temp;Humidity;BMP_temperature;BMP_pressure;BME280_temperature;BME280_humidity;BME280_pressure;Samples;Min_cycle;Max_cycle;Signal;HPM_P1;HPM_P2
2021/07/25 00:01:52;;;;;;;34.20;13.32;;;;;;;;;;5093916;28;20456;-77
2021/07/25 00:04:17;;;;;;;26.73;13.32;;;;;;;;;;5093854;28;20024;-77
2021/07/25 00:06:43;;;;;;;31.80;13.52;;;;;;;;;;5093929;28;20119;-77
2021/07/25 00:09:08;;;;;;;30.50;12.48;;;;;;;;;;5093075;28;20434;-77
2021/07/25 00:11:33;;;;;;;26.67;12.15;;;;;;;;;;5093955;28;20119;-77
2021/07/25 00:14:03;;;;;;;18.67;10.68;;;;;;;;;;5092838;28;20051;-77
2021/07/25 00:16:28;;;;;;;18.63;10.23;;;;;;;;;;5093671;28;20024;-77
2021/07/25 00:18:53;;;;;;;17.50;10.13;;;;;;;;;;5093783;28;20143;-77
2021/07/25 00:21:19;;;;;;;20.35;11.05;;;;;;;;;;5093775;28;20072;-77
2021/07/25 00:23:47;;;;;;;24.50;10.75;;;;;;;;;;5093945;28;20099;-77
2021/07/25 00:26:14;;;;;;;23.13;10.57;;;;;;;;;;5093457;28;20441;-77
2021/07/25 00:28:39;;;;;;;18.00;11.23;;;;;;;;;;5093356;28;20028;-77
2021/07/25 00:31:08;;;;;;;20.75;11.77;;;;;;;;;;5093775;28;20376;-77
2021/07/25 00:33:34;;;;;;;21.65;10.77;;;;;;;;;;5093473;28;20035;-77
2021/07/25 00:36:00;;;;;;;18.08;10.13;;;;;;;;;;5093534;28;20395;-77
2021/07/25 00:38:25;;;;;;;22.45;11.32;;;;;;;;;;5093407;28;20008;-77
2021/07/25 00:40:52;;;;;;;19.45;11.05;;;;;;;;;;5093446;28;20047;-77
2021/07/25 00:43:27;;;;;;;27.33;12.13;;;;;;;;;;5093341;28;20064;-77
2021/07/25 00:45:56;;;;;;;27.08;11.57;;;;;;;;;;5093369;28;20031;-77
2021/07/25 00:48:22;;;;;;;24.83;12.45;;;;;;;;;;5093141;28;20040;-77
2021/07/25 00:50:47;;;;;;;24.38;11.73;;;;;;;;;;5093473;28;20115;-77
2021/07/25 00:53:13;;;;;;;20.77;11.88;;;;;;;;;;5092821;28;20029;-77
2021/07/25 00:55:40;;;;;;;22.63;11.77;;;;;;;;;;5093267;28;20059;-77
2021/07/25 00:58:05;;;;;;;25.85;12.00;;;;;;;;;;5093278;28;20448;-76
2021/07/25 01:00:30;;;;;;;23.63;12.10;;;;;;;;;;5092953;28;20032;-77
2021/07/25 01:03:01;;;;;;;21.83;12.27;;;;;;;;;;5093377;28;20032;-77
2021/07/25 01:05:39;;;;;;;27.05;11.63;;;;;;;;;;5093241;28;20030;-77
2021/07/25 01:08:16;;;;;;;24.48;12.00;;;;;;;;;;5093142;28;20077;-77
2021/07/25 01:10:43;;;;;;;22.73;12.13;;;;;;;;;;5092733;28;20032;-77
2021/07/25 01:13:12;;;;;;;23.92;12.18;;;;;;;;;;5091873;28;20049;-77
2021/07/25 01:15:39;;;;;;;20.10;10.52;;;;;;;;;;5093099;28;20052;-77
2021/07/25 01:18:04;;;;;;;17.80;11.60;;;;;;;;;;5092963;28;20020;-77
2021/07/25 01:20:30;;;;;;;21.17;10.98;;;;;;;;;;5092550;28;20048;-77
2021/07/25 01:22:56;;;;;;;20.50;10.63;;;;;;;;;;5093156;28;20032;-77
2021/07/25 01:25:22;;;;;;;23.50;11.82;;;;;;;;;;5093005;28;20043;-77
2021/07/25 01:27:53;;;;;;;27.48;11.30;;;;;;;;;;5092935;28;20111;-77
2021/07/25 01:30:20;;;;;;;23.17;10.65;;;;;;;;;;5092966;28;20036;-77
2021/07/25 01:32:46;;;;;;;27.05;11.45;;;;;;;;;;5092590;28;20380;-77
2021/07/25 01:35:14;;;;;;;25.58;11.48;;;;;;;;;;5092724;28;20044;-77
2021/07/25 01:37:40;;;;;;;24.38;11.48;;;;;;;;;;5092858;28;20032;-77
2021/07/25 01:40:16;;;;;;;23.58;10.85;;;;;;;;;;5092832;28;20073;-77
2021/07/25 01:42:41;;;;;;;23.55;11.13;;;;;;;;;;5097194;28;20038;-77
2021/07/25 01:45:07;;;;;;;24.63;10.80;;;;;;;;;;5096413;28;20403;-76
2021/07/25 01:47:33;;;;;;;24.35;11.82;;;;;;;;;;5096553;28;20031;-77
2021/07/25 01:49:58;;;;;;;22.10;11.73;;;;;;;;;;5096792;28;20032;-78
2021/07/25 01:52:24;;;;;;;24.80;10.98;;;;;;;;;;5096570;28;20024;-77
2021/07/25 01:54:49;;;;;;;20.88;10.80;;;;;;;;;;5096679;28;20054;-77
2021/07/25 01:57:14;;;;;;;28.58;12.30;;;;;;;;;;5096164;28;20034;-77
2021/07/25 01:59:39;;;;;;;23.45;11.45;;;;;;;;;;5096273;28;20059;-77
2021/07/25 02:02:05;;;;;;;31.42;12.77;;;;;;;;;;5096260;28;20021;-77
2021/07/25 02:04:30;;;;;;;22.15;11.52;;;;;;;;;;5095912;28;20472;-77
2021/07/25 02:06:55;;;;;;;21.60;11.77;;;;;;;;;;5096381;28;20028;-77
2021/07/25 02:09:20;;;;;;;22.10;10.75;;;;;;;;;;5096378;28;20012;-77
2021/07/25 02:11:46;;;;;;;21.40;10.95;;;;;;;;;;5096163;28;20036;-77
2021/07/25 02:14:11;;;;;;;23.02;10.90;;;;;;;;;;5095808;28;20043;-77
2021/07/25 02:16:36;;;;;;;20.02;11.07;;;;;;;;;;5096207;28;20059;-77
2021/07/25 02:19:02;;;;;;;20.80;11.43;;;;;;;;;;5096557;28;20032;-76
2021/07/25 02:21:27;;;;;;;23.98;10.90;;;;;;;;;;5095732;28;20496;-77
2021/07/25 02:23:52;;;;;;;24.20;10.75;;;;;;;;;;5096323;28;20027;-77
2021/07/25 02:26:18;;;;;;;19.63;11.02;;;;;;;;;;5096070;28;20024;-77
2021/07/25 02:28:43;;;;;;;19.45;10.43;;;;;;;;;;5095834;28;20028;-77
2021/07/25 02:31:09;;;;;;;18.52;10.63;;;;;;;;;;5095572;28;20099;-77
2021/07/25 02:33:34;;;;;;;22.15;10.10;;;;;;;;;;5096254;28;20024;-77
2021/07/25 02:35:59;;;;;;;31.50;11.95;;;;;;;;;;5095890;28;20113;-77
2021/07/25 02:38:24;;;;;;;20.20;10.27;;;;;;;;;;5095526;28;20016;-77
2021/07/25 02:40:50;;;;;;;20.60;9.90;;;;;;;;;;5095449;28;20035;-77
2021/07/25 02:43:15;;;;;;;17.27;10.00;;;;;;;;;;5095857;28;20127;-77
2021/07/25 02:45:40;;;;;;;17.35;10.60;;;;;;;;;;5095466;28;20028;-76
2021/07/25 02:48:05;;;;;;;17.75;10.07;;;;;;;;;;5095319;28;20025;-76
2021/07/25 02:50:31;;;;;;;20.48;10.45;;;;;;;;;;5095224;28;20073;-77
2021/07/25 02:52:56;;;;;;;21.48;10.90;;;;;;;;;;5095510;28;20099;-77
2021/07/25 02:55:21;;;;;;;20.02;10.45;;;;;;;;;;5095456;28;20039;-77
2021/07/25 02:57:47;;;;;;;21.88;10.57;;;;;;;;;;5095603;28;20059;-77
2021/07/25 03:00:12;;;;;;;24.85;10.50;;;;;;;;;;5095474;28;20372;-79
2021/07/25 03:02:38;;;;;;;22.13;11.18;;;;;;;;;;5095256;28;20099;-79
2021/07/25 03:05:04;;;;;;;22.15;11.32;;;;;;;;;;5095743;28;20028;-79
2021/07/25 03:07:29;;;;;;;19.65;11.00;;;;;;;;;;5095035;28;20032;-79
2021/07/25 03:09:54;;;;;;;21.00;12.25;;;;;;;;;;5095405;28;20024;-78
2021/07/25 03:12:20;;;;;;;22.73;11.13;;;;;;;;;;5095028;28;20533;-78
2021/07/25 03:14:45;;;;;;;33.05;12.05;;;;;;;;;;5094444;28;20035;-79
2021/07/25 03:17:10;;;;;;;27.95;11.65;;;;;;;;;;5095171;28;20043;-79
2021/07/25 03:19:35;;;;;;;23.13;11.75;;;;;;;;;;5094688;28;20116;-79
2021/07/25 03:22:04;;;;;;;23.25;10.27;;;;;;;;;;5094833;28;20012;-79
2021/07/25 03:24:29;;;;;;;21.92;11.15;;;;;;;;;;5094830;28;20071;-79
2021/07/25 03:26:54;;;;;;;25.60;10.85;;;;;;;;;;5095027;28;20032;-79
2021/07/25 03:29:20;;;;;;;23.70;11.13;;;;;;;;;;5094931;28;20102;-78
2021/07/25 03:31:45;;;;;;;24.38;13.23;;;;;;;;;;5094630;28;20035;-78
2021/07/25 03:34:10;;;;;;;24.30;11.00;;;;;;;;;;5094593;28;20118;-79
2021/07/25 03:36:35;;;;;;;22.52;11.45;;;;;;;;;;5094786;28;20023;-79
2021/07/25 03:39:01;;;;;;;18.63;10.40;;;;;;;;;;5094864;28;20487;-78
2021/07/25 03:41:26;;;;;;;23.38;11.20;;;;;;;;;;5094457;28;20480;-78
2021/07/25 03:43:51;;;;;;;24.75;11.55;;;;;;;;;;5094478;28;20016;-79
2021/07/25 03:46:17;;;;;;;29.77;11.52;;;;;;;;;;5094718;28;20107;-79
2021/07/25 03:48:43;;;;;;;26.50;11.80;;;;;;;;;;5094497;28;20112;-79
2021/07/25 03:51:09;;;;;;;20.67;11.40;;;;;;;;;;5092782;28;20071;-78
2021/07/25 03:53:35;;;;;;;25.77;12.10;;;;;;;;;;5094240;28;20034;-79
2021/07/25 03:56:00;;;;;;;26.63;12.45;;;;;;;;;;5094366;28;20043;-79
2021/07/25 03:58:25;;;;;;;22.27;11.57;;;;;;;;;;5094373;28;20020;-79
2021/07/25 04:00:51;;;;;;;26.05;12.18;;;;;;;;;;5094192;28;20403;-79
2021/07/25 04:03:16;;;;;;;25.20;12.20;;;;;;;;;;5093876;28;20056;-79
2021/07/25 04:05:41;;;;;;;20.25;11.48;;;;;;;;;;5094260;28;20030;-79
2021/07/25 04:08:10;;;;;;;25.92;12.45;;;;;;;;;;5093780;28;20024;-79
2021/07/25 04:10:39;;;;;;;27.52;10.90;;;;;;;;;;5093556;28;20404;-78
2021/07/25 04:13:04;;;;;;;23.48;11.52;;;;;;;;;;5093830;28;20028;-79
2021/07/25 04:15:29;;;;;;;20.88;11.82;;;;;;;;;;5093998;28;20039;-79
2021/07/25 04:17:55;;;;;;;25.63;12.25;;;;;;;;;;5093865;28;20127;-77
2021/07/25 04:20:20;;;;;;;20.88;10.98;;;;;;;;;;5093659;28;20052;-79
2021/07/25 04:22:45;;;;;;;25.83;12.30;;;;;;;;;;5093726;28;20028;-79
2021/07/25 04:25:11;;;;;;;21.58;11.63;;;;;;;;;;5093903;28;20424;-78
2021/07/25 04:27:36;;;;;;;22.52;10.88;;;;;;;;;;5093573;28;20020;-79
2021/07/25 04:30:02;;;;;;;24.05;11.77;;;;;;;;;;5093873;28;20028;-79
2021/07/25 04:32:27;;;;;;;22.58;11.55;;;;;;;;;;5093411;28;20396;-79
2021/07/25 04:34:53;;;;;;;20.83;10.48;;;;;;;;;;5093486;28;20115;-79
2021/07/25 04:37:23;;;;;;;23.08;11.63;;;;;;;;;;5093431;28;20032;-79
2021/07/25 04:39:49;;;;;;;22.73;10.80;;;;;;;;;;5093378;28;20385;-79
2021/07/25 04:42:17;;;;;;;22.50;11.35;;;;;;;;;;5093074;28;20020;-78
2021/07/25 04:44:45;;;;;;;21.88;12.00;;;;;;;;;;5093689;28;20032;-79
2021/07/25 04:47:12;;;;;;;24.65;11.38;;;;;;;;;;5093306;28;20058;-79
2021/07/25 04:50:02;;;;;;;21.38;11.60;;;;;;;;;;5093552;28;20016;-79
2021/07/25 04:52:29;;;;;;;25.50;11.60;;;;;;;;;;5093096;28;20059;-79
2021/07/25 04:54:57;;;;;;;22.30;12.10;;;;;;;;;;5093315;28;20042;-79
2021/07/25 04:57:24;;;;;;;22.30;10.45;;;;;;;;;;5093291;28;20020;-79
2021/07/25 04:59:52;;;;;;;23.13;10.88;;;;;;;;;;5093439;28;20074;-79
2021/07/25 05:02:19;;;;;;;23.25;12.27;;;;;;;;;;5093259;28;20035;-79
2021/07/25 05:04:47;;;;;;;19.17;10.90;;;;;;;;;;5093009;28;20127;-79
2021/07/25 05:07:12;;;;;;;19.73;10.77;;;;;;;;;;5093190;28;20032;-79
2021/07/25 05:09:39;;;;;;;21.95;11.30;;;;;;;;;;5092948;28;20054;-79
2021/07/25 05:12:09;;;;;;;20.67;11.10;;;;;;;;;;5093302;28;20021;-79
2021/07/25 05:14:46;;;;;;;17.95;10.52;;;;;;;;;;5093059;28;20076;-79
2021/07/25 05:17:21;;;;;;;17.23;10.52;;;;;;;;;;5096675;28;20036;-79
2021/07/25 05:19:56;;;;;;;18.70;11.38;;;;;;;;;;5097280;28;20082;-79
2021/07/25 05:22:39;;;;;;;19.97;11.00;;;;;;;;;;5097117;28;20032;-79
2021/07/25 05:25:05;;;;;;;16.48;9.45;;;;;;;;;;5097265;28;20024;-79
2021/07/25 05:27:44;;;;;;;17.05;10.57;;;;;;;;;;5097254;28;20031;-79
2021/07/25 05:30:10;;;;;;;17.10;9.77;;;;;;;;;;5097242;28;20051;-79
2021/07/25 05:32:35;;;;;;;18.27;10.18;;;;;;;;;;5097153;28;20042;-79
2021/07/25 05:35:01;;;;;;;25.45;10.70;;;;;;;;;;5096685;28;20422;-79
2021/07/25 05:37:26;;;;;;;16.00;9.77;;;;;;;;;;5097059;28;20059;-79
2021/07/25 05:39:51;;;;;;;19.27;10.88;;;;;;;;;;5096875;28;20035;-78
2021/07/25 05:42:17;;;;;;;21.15;10.55;;;;;;;;;;5096929;28;20523;-79
2021/07/25 05:44:42;;;;;;;20.67;10.20;;;;;;;;;;5095522;28;20036;-79
2021/07/25 05:47:07;;;;;;;20.98;10.32;;;;;;;;;;5096849;28;20055;-79
2021/07/25 05:49:32;;;;;;;16.92;9.35;;;;;;;;;;5096983;28;20028;-79
2021/07/25 05:51:58;;;;;;;19.67;9.88;;;;;;;;;;5096839;28;20411;-79
2021/07/25 05:54:23;;;;;;;19.85;10.10;;;;;;;;;;5096414;28;20117;-79
2021/07/25 05:56:48;;;;;;;14.48;8.80;;;;;;;;;;5096719;28;20026;-79
2021/07/25 05:59:13;;;;;;;17.00;8.95;;;;;;;;;;5096682;28;20113;-79
2021/07/25 06:01:39;;;;;;;15.02;8.95;;;;;;;;;;5096661;28;20483;-79
2021/07/25 06:04:05;;;;;;;13.13;8.15;;;;;;;;;;5096495;28;20436;-79
2021/07/25 06:06:31;;;;;;;16.13;8.60;;;;;;;;;;5096217;28;20055;-79
2021/07/25 06:08:56;;;;;;;12.73;8.10;;;;;;;;;;5096598;28;20051;-79
2021/07/25 06:11:23;;;;;;;15.88;9.13;;;;;;;;;;5096177;28;20025;-79
2021/07/25 06:13:48;;;;;;;12.23;7.60;;;;;;;;;;5096386;28;20032;-79
2021/07/25 06:16:14;;;;;;;16.70;8.13;;;;;;;;;;5096011;28;20044;-79
2021/07/25 06:18:39;;;;;;;17.02;8.65;;;;;;;;;;5096411;28;20372;-79
2021/07/25 06:21:04;;;;;;;15.23;8.63;;;;;;;;;;5096320;28;20397;-79
2021/07/25 06:23:30;;;;;;;17.10;7.97;;;;;;;;;;5096219;28;20055;-79
2021/07/25 06:25:55;;;;;;;19.42;8.85;;;;;;;;;;5095814;28;20020;-79
2021/07/25 06:28:20;;;;;;;15.75;7.82;;;;;;;;;;5095642;28;20032;-79
2021/07/25 06:30:45;;;;;;;17.48;9.15;;;;;;;;;;5096158;28;20437;-79
2021/07/25 06:33:11;;;;;;;19.70;9.98;;;;;;;;;;5095955;28;20031;-79
2021/07/25 06:35:38;;;;;;;14.63;8.50;;;;;;;;;;5095304;28;20036;-79
2021/07/25 06:38:04;;;;;;;13.82;8.98;;;;;;;;;;5095864;28;20036;-79
2021/07/25 06:40:30;;;;;;;20.48;9.48;;;;;;;;;;5095897;28;20075;-79
2021/07/25 06:42:56;;;;;;;16.60;9.27;;;;;;;;;;5095393;28;20495;-78
2021/07/25 06:45:22;;;;;;;16.98;8.98;;;;;;;;;;5095686;28;20077;-78
2021/07/25 06:47:48;;;;;;;15.65;8.45;;;;;;;;;;5095738;28;20020;-78
2021/07/25 06:50:15;;;;;;;20.48;9.77;;;;;;;;;;5095702;28;20028;-79
2021/07/25 06:52:41;;;;;;;20.05;8.40;;;;;;;;;;5095436;28;20038;-79
2021/07/25 06:55:09;;;;;;;18.52;9.55;;;;;;;;;;5094907;28;20099;-79
2021/07/25 06:57:34;;;;;;;14.27;7.50;;;;;;;;;;5095435;28;20043;-79
2021/07/25 07:00:00;;;;;;;15.65;7.72;;;;;;;;;;5095557;28;20036;-79
2021/07/25 07:02:25;;;;;;;15.07;9.07;;;;;;;;;;5095184;28;20024;-79
2021/07/25 07:04:52;;;;;;;16.52;8.43;;;;;;;;;;5095362;28;20037;-79
2021/07/25 07:07:17;;;;;;;17.55;9.13;;;;;;;;;;5095122;28;20031;-78
2021/07/25 07:09:43;;;;;;;17.48;9.13;;;;;;;;;;5094957;28;20384;-78
2021/07/25 07:12:08;;;;;;;16.05;8.77;;;;;;;;;;5095404;28;20057;-77
2021/07/25 07:14:33;;;;;;;17.15;8.75;;;;;;;;;;5095268;28;20040;-77
2021/07/25 07:16:58;;;;;;;14.07;8.68;;;;;;;;;;5094648;28;20464;-78
2021/07/25 07:19:24;;;;;;;16.38;8.48;;;;;;;;;;5095050;28;20036;-77
2021/07/25 07:21:49;;;;;;;18.67;9.60;;;;;;;;;;5095034;28;20032;-78
2021/07/25 07:24:14;;;;;;;15.85;9.00;;;;;;;;;;5095047;28;20020;-77
2021/07/25 07:26:39;;;;;;;19.33;9.10;;;;;;;;;;5094703;28;20024;-77
2021/07/25 07:29:05;;;;;;;15.85;9.80;;;;;;;;;;5094882;28;20553;-77
2021/07/25 07:31:30;;;;;;;11.80;8.60;;;;;;;;;;5094348;28;20051;-74
2021/07/25 07:33:55;;;;;;;17.73;9.13;;;;;;;;;;5094468;28;20032;-77
2021/07/25 07:36:21;;;;;;;14.00;9.05;;;;;;;;;;5093924;28;20079;-77
2021/07/25 07:38:46;;;;;;;17.00;9.07;;;;;;;;;;5094157;28;20051;-77
2021/07/25 07:41:11;;;;;;;14.05;8.65;;;;;;;;;;5094648;28;20102;-78
2021/07/25 07:43:38;;;;;;;15.32;9.50;;;;;;;;;;5094718;28;20032;-77
2021/07/25 07:46:03;;;;;;;36.28;9.98;;;;;;;;;;5094317;28;20099;-77
2021/07/25 07:48:28;;;;;;;20.52;8.82;;;;;;;;;;5094444;28;20052;-77
2021/07/25 07:50:54;;;;;;;13.55;8.63;;;;;;;;;;5094564;28;20392;-78
2021/07/25 07:53:20;;;;;;;13.55;8.88;;;;;;;;;;5094025;28;20464;-77
2021/07/25 07:55:45;;;;;;;14.52;8.77;;;;;;;;;;5094017;28;20032;-77
2021/07/25 07:58:10;;;;;;;14.10;8.98;;;;;;;;;;5094291;28;20043;-77
2021/07/25 08:00:36;;;;;;;21.70;9.88;;;;;;;;;;5094247;28;20554;-78
2021/07/25 08:03:04;;;;;;;17.38;9.50;;;;;;;;;;5094154;28;20028;-77
2021/07/25 08:05:29;;;;;;;19.20;9.43;;;;;;;;;;5093475;28;20469;-77
2021/07/25 08:07:55;;;;;;;18.17;9.60;;;;;;;;;;5094092;28;20019;-77
2021/07/25 08:10:20;;;;;;;15.90;8.85;;;;;;;;;;5093706;28;20036;-77
2021/07/25 08:12:45;;;;;;;20.30;10.10;;;;;;;;;;5093849;28;20077;-77
2021/07/25 08:15:12;;;;;;;17.17;8.88;;;;;;;;;;5094325;28;20024;-78
2021/07/25 08:17:37;;;;;;;18.35;9.82;;;;;;;;;;5093342;28;20491;-77
2021/07/25 08:20:03;;;;;;;15.55;9.73;;;;;;;;;;5093558;28;20047;-77
2021/07/25 08:22:28;;;;;;;16.70;9.57;;;;;;;;;;5093521;28;20020;-77
2021/07/25 08:24:53;;;;;;;14.63;9.25;;;;;;;;;;5093937;28;20032;-77
2021/07/25 08:27:20;;;;;;;15.65;8.95;;;;;;;;;;5093296;28;20044;-77
2021/07/25 08:29:45;;;;;;;15.77;9.73;;;;;;;;;;5097685;28;20383;-77
2021/07/25 08:32:11;;;;;;;15.38;9.82;;;;;;;;;;5113769;28;20390;-77
2021/07/25 08:34:37;;;;;;;18.90;9.48;;;;;;;;;;5113936;28;20035;-77
2021/07/25 08:37:02;;;;;;;15.88;9.20;;;;;;;;;;5113157;27;20079;-77
2021/07/25 08:39:27;;;;;;;17.85;8.82;;;;;;;;;;5112379;28;20385;-77
2021/07/25 08:41:56;;;;;;;15.00;8.77;;;;;;;;;;5112499;27;20027;-77
2021/07/25 08:44:40;;;;;;;13.75;8.50;;;;;;;;;;5112517;28;20360;-77
2021/07/25 08:47:15;;;;;;;17.85;9.15;;;;;;;;;;5112434;28;20560;-77
2021/07/25 08:49:46;;;;;;;16.95;9.35;;;;;;;;;;5112820;28;20035;-78
2021/07/25 08:52:15;;;;;;;14.40;8.85;;;;;;;;;;5112892;28;20088;-77
2021/07/25 08:54:42;;;;;;;16.38;9.13;;;;;;;;;;5113907;27;20046;-78
2021/07/25 08:57:10;;;;;;;14.95;8.48;;;;;;;;;;5113574;28;20028;-78
2021/07/25 08:59:36;;;;;;;16.40;8.43;;;;;;;;;;5113234;28;20475;-77
2021/07/25 09:02:01;;;;;;;12.82;9.40;;;;;;;;;;5113741;28;20066;-78
2021/07/25 09:04:28;;;;;;;12.32;7.32;;;;;;;;;;5113722;28;20055;-78
2021/07/25 09:06:55;;;;;;;11.45;8.40;;;;;;;;;;5113217;28;20034;-77
2021/07/25 09:09:20;;;;;;;15.63;8.73;;;;;;;;;;5110892;28;20035;-78
2021/07/25 09:11:46;;;;;;;12.90;8.23;;;;;;;;;;5093222;28;20028;-78
2021/07/25 09:14:12;;;;;;;16.58;8.18;;;;;;;;;;5092912;28;20032;-78
2021/07/25 09:16:37;;;;;;;20.27;7.82;;;;;;;;;;5092819;28;20083;-78
2021/07/25 09:19:03;;;;;;;15.77;7.43;;;;;;;;;;5093188;28;20020;-78
2021/07/25 09:21:49;;;;;;;12.40;7.97;;;;;;;;;;5093096;28;20052;-78
2021/07/25 09:24:18;;;;;;;12.60;8.00;;;;;;;;;;5093224;28;20055;-78
2021/07/25 09:26:50;;;;;;;15.48;8.38;;;;;;;;;;5092798;28;20028;-78
2021/07/25 09:29:19;;;;;;;12.77;7.55;;;;;;;;;;5093106;28;20040;-78
2021/07/25 09:31:44;;;;;;;14.45;8.18;;;;;;;;;;5092980;28;20368;-77
2021/07/25 09:34:09;;;;;;;13.52;7.75;;;;;;;;;;5092916;28;20036;-78
2021/07/25 09:36:37;;;;;;;15.15;7.88;;;;;;;;;;5092909;28;20035;-78
2021/07/25 09:39:04;;;;;;;14.57;7.93;;;;;;;;;;5093014;28;20032;-78
2021/07/25 09:41:30;;;;;;;11.85;6.93;;;;;;;;;;5092866;28;20141;-78
2021/07/25 09:44:08;;;;;;;19.73;7.75;;;;;;;;;;5092841;28;20112;-78
2021/07/25 09:46:40;;;;;;;14.75;7.78;;;;;;;;;;5092580;28;20403;-77
2021/07/25 09:49:06;;;;;;;17.42;8.82;;;;;;;;;;5092794;28;20036;-78
2021/07/25 09:51:31;;;;;;;16.40;8.27;;;;;;;;;;5092532;28;20024;-78
2021/07/25 09:54:01;;;;;;;12.48;8.57;;;;;;;;;;5092681;28;20046;-78
2021/07/25 09:56:27;;;;;;;11.73;8.02;;;;;;;;;;5092381;28;20553;-78
2021/07/25 09:58:54;;;;;;;15.25;7.80;;;;;;;;;;5092817;28;20032;-78
2021/07/25 10:01:35;;;;;;;13.27;7.65;;;;;;;;;;5092935;28;20020;-78
2021/07/25 10:04:27;;;;;;;16.77;8.00;;;;;;;;;;5096771;28;20036;-78
2021/07/25 10:06:54;;;;;;;10.52;7.60;;;;;;;;;;5092462;28;20455;-78
2021/07/25 10:09:20;;;;;;;16.52;8.52;;;;;;;;;;5096593;28;20046;-78
2021/07/25 10:11:47;;;;;;;15.25;8.02;;;;;;;;;;5096180;28;20024;-78
2021/07/25 10:14:14;;;;;;;10.50;7.10;;;;;;;;;;5096462;28;20028;-78
2021/07/25 10:16:40;;;;;;;13.40;7.60;;;;;;;;;;5096278;28;20077;-78
2021/07/25 10:19:05;;;;;;;15.27;7.50;;;;;;;;;;5095995;28;20028;-78
2021/07/25 10:21:32;;;;;;;11.30;7.57;;;;;;;;;;5095770;28;20044;-78
2021/07/25 10:23:58;;;;;;;16.88;8.45;;;;;;;;;;5096000;28;20366;-78
2021/07/25 10:26:25;;;;;;;11.65;7.70;;;;;;;;;;5096277;28;20074;-78
2021/07/25 10:28:52;;;;;;;13.50;7.72;;;;;;;;;;5095811;28;20020;-78
2021/07/25 10:31:18;;;;;;;14.80;7.32;;;;;;;;;;5096176;28;20028;-78
2021/07/25 10:33:45;;;;;;;9.88;7.00;;;;;;;;;;5095981;28;20024;-78
2021/07/25 10:36:11;;;;;;;11.80;7.10;;;;;;;;;;5095797;28;20435;-78
2021/07/25 10:38:36;;;;;;;9.38;7.07;;;;;;;;;;5095532;28;20118;-78
2021/07/25 10:41:02;;;;;;;15.75;8.07;;;;;;;;;;5096082;28;20422;-78
2021/07/25 10:43:27;;;;;;;10.52;6.70;;;;;;;;;;5095468;28;20012;-78
2021/07/25 10:46:17;;;;;;;11.80;7.47;;;;;;;;;;5095788;28;20028;-78
2021/07/25 10:49:00;;;;;;;8.52;6.28;;;;;;;;;;5085205;28;20111;-78
2021/07/25 10:51:26;;;;;;;12.40;6.70;;;;;;;;;;5095773;28;20108;-78
2021/07/25 10:53:51;;;;;;;16.85;7.43;;;;;;;;;;5095559;28;20065;-78
2021/07/25 10:56:17;;;;;;;10.45;6.57;;;;;;;;;;5095394;28;20400;-78
2021/07/25 10:58:51;;;;;;;12.05;7.30;;;;;;;;;;5095416;28;20031;-78
2021/07/25 11:01:36;;;;;;;11.48;6.38;;;;;;;;;;5095620;28;20020;-78
2021/07/25 11:04:02;;;;;;;12.50;7.53;;;;;;;;;;5094940;28;20369;-78
2021/07/25 11:06:27;;;;;;;10.70;5.70;;;;;;;;;;5095713;28;20023;-78
2021/07/25 11:08:52;;;;;;;9.90;6.45;;;;;;;;;;5095151;28;20038;-78
2021/07/25 11:11:36;;;;;;;9.02;6.15;;;;;;;;;;5095329;28;20032;-78
2021/07/25 11:14:02;;;;;;;7.65;5.38;;;;;;;;;;5093934;28;20103;-78
2021/07/25 11:16:28;;;;;;;9.43;5.95;;;;;;;;;;5094875;28;20527;-78
2021/07/25 11:18:53;;;;;;;8.77;6.03;;;;;;;;;;5094901;28;20031;-78
2021/07/25 11:21:36;;;;;;;9.85;6.40;;;;;;;;;;5094704;28;20055;-78
2021/07/25 11:24:26;;;;;;;11.38;6.38;;;;;;;;;;5094890;28;20547;-78
2021/07/25 11:26:51;;;;;;;8.23;5.40;;;;;;;;;;5082700;28;20046;-78
2021/07/25 11:29:18;;;;;;;9.32;5.97;;;;;;;;;;5094844;28;20028;-79
2021/07/25 11:31:44;;;;;;;8.73;5.53;;;;;;;;;;5094408;28;20445;-78
2021/07/25 11:34:13;;;;;;;9.95;6.20;;;;;;;;;;5093766;28;20085;-78
2021/07/25 11:36:39;;;;;;;11.52;6.40;;;;;;;;;;5094485;28;20468;-78
2021/07/25 11:39:06;;;;;;;11.85;6.03;;;;;;;;;;5094651;28;20054;-78
2021/07/25 11:41:32;;;;;;;11.35;5.85;;;;;;;;;;5094353;28;20021;-78
2021/07/25 11:44:02;;;;;;;12.27;5.90;;;;;;;;;;5094731;28;20093;-78
2021/07/25 11:46:29;;;;;;;9.95;6.65;;;;;;;;;;5094701;28;20054;-78
2021/07/25 11:49:23;;;;;;;8.77;6.40;;;;;;;;;;5094461;28;20103;-78
2021/07/25 11:51:58;;;;;;;10.80;6.27;;;;;;;;;;5071309;28;20062;-78
2021/07/25 11:54:34;;;;;;;10.38;6.50;;;;;;;;;;5094536;28;20468;-78
2021/07/25 11:57:08;;;;;;;11.68;6.57;;;;;;;;;;5093661;28;20472;-78
2021/07/25 11:59:35;;;;;;;13.02;7.00;;;;;;;;;;5093855;28;20028;-78
2021/07/25 12:02:01;;;;;;;10.05;6.22;;;;;;;;;;5094312;28;20070;-78
2021/07/25 12:04:39;;;;;;;11.90;6.38;;;;;;;;;;5094204;28;20023;-78
2021/07/25 12:07:17;;;;;;;14.48;6.80;;;;;;;;;;5093674;28;20040;-78
2021/07/25 12:09:46;;;;;;;13.43;7.38;;;;;;;;;;5093983;28;20028;-78
2021/07/25 12:12:18;;;;;;;9.93;6.38;;;;;;;;;;5094099;28;20483;-78
2021/07/25 12:14:44;;;;;;;11.57;7.18;;;;;;;;;;5093786;28;20051;-78
2021/07/25 12:17:10;;;;;;;10.07;6.57;;;;;;;;;;5093396;28;20020;-78
2021/07/25 12:19:39;;;;;;;11.25;6.80;;;;;;;;;;5093750;28;20038;-77
2021/07/25 12:22:13;;;;;;;14.38;7.55;;;;;;;;;;5093866;28;20039;-78
2021/07/25 12:24:39;;;;;;;16.60;7.63;;;;;;;;;;5093405;28;20028;-78
2021/07/25 12:27:05;;;;;;;14.27;7.10;;;;;;;;;;5093858;28;20032;-78
2021/07/25 12:29:34;;;;;;;14.23;7.22;;;;;;;;;;5093828;28;20476;-78
2021/07/25 12:31:59;;;;;;;12.38;6.95;;;;;;;;;;5093611;28;20039;-78
2021/07/25 12:34:24;;;;;;;9.43;6.53;;;;;;;;;;5093053;28;20028;-78
2021/07/25 12:36:50;;;;;;;9.75;7.03;;;;;;;;;;5093735;28;20345;-78
2021/07/25 12:39:18;;;;;;;11.25;7.15;;;;;;;;;;5094049;28;20038;-78
2021/07/25 12:41:43;;;;;;;9.10;6.40;;;;;;;;;;5093158;28;20028;-78
2021/07/25 12:44:09;;;;;;;9.82;7.18;;;;;;;;;;5093564;28;20023;-78
2021/07/25 12:46:34;;;;;;;10.50;7.65;;;;;;;;;;5093350;28;20471;-79
2021/07/25 12:49:02;;;;;;;15.05;7.78;;;;;;;;;;5093447;28;20032;-78
2021/07/25 12:51:41;;;;;;;7.95;6.80;;;;;;;;;;5093299;28;20085;-77
2021/07/25 12:54:07;;;;;;;9.05;6.22;;;;;;;;;;5093175;28;20078;-78
2021/07/25 12:56:33;;;;;;;12.02;7.68;;;;;;;;;;5093298;28;20036;-78
2021/07/25 12:59:01;;;;;;;10.55;6.60;;;;;;;;;;5093369;28;20016;-78
2021/07/25 13:04:01;;;;;;;11.20;6.53;;;;;;;;;;5093299;28;20032;-77
2021/07/25 13:06:30;;;;;;;12.32;7.22;;;;;;;;;;5093420;28;20039;-78
2021/07/25 13:08:55;;;;;;;8.30;6.15;;;;;;;;;;5093129;28;20384;-78
2021/07/25 13:11:22;;;;;;;13.10;7.72;;;;;;;;;;5107744;28;20019;-77
2021/07/25 13:13:49;;;;;;;13.48;7.70;;;;;;;;;;5096410;28;20097;-77
2021/07/25 13:16:18;;;;;;;10.15;7.10;;;;;;;;;;5109380;28;20127;-78
2021/07/25 13:18:46;;;;;;;12.18;6.65;;;;;;;;;;5100541;28;20012;-78
2021/07/25 13:21:11;;;;;;;17.95;8.38;;;;;;;;;;5101211;28;20476;-77
2021/07/25 13:23:37;;;;;;;9.82;7.47;;;;;;;;;;5108346;28;20049;-78
2021/07/25 13:26:03;;;;;;;11.27;7.05;;;;;;;;;;5096697;28;20016;-78
2021/07/25 13:28:28;;;;;;;10.23;6.70;;;;;;;;;;5107056;28;20379;-78
2021/07/25 13:30:53;;;;;;;9.70;7.00;;;;;;;;;;5100770;28;20036;-77
2021/07/25 13:33:19;;;;;;;13.00;7.47;;;;;;;;;;5099943;28;20464;-78
2021/07/25 13:35:44;;;;;;;11.45;7.03;;;;;;;;;;5108036;28;20036;-78
2021/07/25 13:38:09;;;;;;;10.32;7.28;;;;;;;;;;5099542;28;20705;-78
2021/07/25 13:40:34;;;;;;;11.55;7.13;;;;;;;;;;5110308;28;20397;-78
2021/07/25 13:43:00;;;;;;;11.95;7.03;;;;;;;;;;5106894;28;20076;-78
2021/07/25 13:45:25;;;;;;;11.20;7.35;;;;;;;;;;5103334;28;20375;-78
2021/07/25 13:47:52;;;;;;;13.15;7.70;;;;;;;;;;5113266;28;20024;-78
2021/07/25 13:50:17;;;;;;;11.15;7.85;;;;;;;;;;5101125;28;20024;-78
2021/07/25 13:52:43;;;;;;;11.00;7.13;;;;;;;;;;5108821;28;20499;-78
2021/07/25 13:55:08;;;;;;;11.80;6.97;;;;;;;;;;5107881;28;20067;-78
2021/07/25 13:57:34;;;;;;;9.38;7.57;;;;;;;;;;5101801;28;20024;-78
2021/07/25 13:59:59;;;;;;;11.93;7.45;;;;;;;;;;5113048;28;20039;-78
2021/07/25 14:02:24;;;;;;;12.70;7.68;;;;;;;;;;5101402;28;20023;-78
2021/07/25 14:04:53;;;;;;;11.10;7.50;;;;;;;;;;5107882;28;20089;-78
2021/07/25 14:07:18;;;;;;;10.93;7.32;;;;;;;;;;5109080;28;20039;-78
2021/07/25 14:09:43;;;;;;;16.17;7.43;;;;;;;;;;5100302;28;20017;-78
2021/07/25 14:12:08;;;;;;;12.63;7.25;;;;;;;;;;5096251;28;20500;-78
2021/07/25 14:14:34;;;;;;;10.60;7.40;;;;;;;;;;5096246;28;20081;-78
2021/07/25 14:17:03;;;;;;;12.52;7.18;;;;;;;;;;5096028;28;20388;-78
2021/07/25 14:19:29;;;;;;;11.52;7.38;;;;;;;;;;5096121;28;20032;-78
2021/07/25 14:21:54;;;;;;;17.63;7.07;;;;;;;;;;5095838;28;20106;-78
2021/07/25 14:24:19;;;;;;;12.32;6.55;;;;;;;;;;5096319;28;20031;-78
2021/07/25 14:26:45;;;;;;;9.85;6.63;;;;;;;;;;5096325;28;20088;-78
2021/07/25 14:29:10;;;;;;;14.45;6.32;;;;;;;;;;5095835;28;20039;-78